Time;durP1;ratioP1;P1;durP2;ratioP2;P2;SDS_P1;SDS_P2;PMS_P1;PMS_P2;Temp;Humidity;BMP_temperature;BMP_pressure;BME280_temperature;BME280_humidity;BME280_pressure;Samples;Min_cycle;Max_cycle;Signal;HPM_P1;HPM_P2
2021/10/21 00:00:12;;;;;;;;;82.00;75.50;17.80;47.40;;;;;;4844335;29;8796;-62
2021/10/21 00:02:39;;;;;;;;;83.75;79.75;17.80;47.40;;;;;;4844551;29;8807;-62
2021/10/21 00:05:06;;;;;;;;;81.50;80.75;17.80;47.40;;;;;;4844542;29;8796;-62
2021/10/21 00:07:32;;;;;;;;;80.50;75.25;17.70;47.40;;;;;;4844141;29;8927;-62
2021/10/21 00:10:01;;;;;;;;;80.75;74.00;17.70;47.40;;;;;;4844478;29;8800;-62
2021/10/21 00:12:28;;;;;;;;;80.25;73.25;17.70;47.40;;;;;;4844169;29;8832;-62
2021/10/21 00:14:53;;;;;;;;;84.25;75.75;17.70;47.60;;;;;;4844371;29;8892;-61
2021/10/21 00:17:19;;;;;;;;;74.75;64.75;17.70;47.50;;;;;;4844070;29;8803;-62
2021/10/21 00:19:45;;;;;;;;;75.00;66.00;17.70;47.70;;;;;;4844346;29;8918;-61
2021/10/21 00:22:11;;;;;;;;;76.75;70.00;17.70;47.60;;;;;;4844056;29;8780;-61
2021/10/21 00:24:37;;;;;;;;;77.00;69.25;17.60;47.60;;;;;;4844196;29;8928;-62
2021/10/21 00:27:03;;;;;;;;;75.75;68.00;17.60;47.70;;;;;;4843800;29;8874;-61
2021/10/21 00:29:29;;;;;;;;;77.75;70.25;17.50;47.70;;;;;;4844125;29;8801;-62
2021/10/21 00:31:54;;;;;;;;;75.75;66.75;17.50;47.80;;;;;;4843788;29;8804;-62
2021/10/21 00:34:20;;;;;;;;;73.75;63.00;17.50;48.10;;;;;;4844085;29;8820;-62
2021/10/21 00:36:46;;;;;;;;;75.50;68.25;17.50;48.90;;;;;;4843863;29;8792;-62
2021/10/21 00:39:12;;;;;;;;;79.50;74.25;17.50;47.80;;;;;;4844065;29;8911;-62
2021/10/21 00:41:38;;;;;;;;;80.25;73.00;17.40;47.90;;;;;;4843799;29;8831;-62
2021/10/21 00:44:11;;;;;;;;;76.75;67.50;17.40;48.10;;;;;;4843738;29;8796;-61
2021/10/21 00:46:37;;;;;;;;;72.75;61.25;17.40;48.00;;;;;;4841862;29;8836;-61
2021/10/21 00:49:04;;;;;;;;;72.25;61.25;17.40;47.80;;;;;;4843832;29;8847;-61
2021/10/21 00:51:31;;;;;;;;;72.00;61.25;17.40;47.90;;;;;;4843897;29;9816;-61
2021/10/21 00:53:58;;;;;;;;;74.75;62.75;17.40;47.80;;;;;;4843234;29;8854;-61
2021/10/21 00:56:26;;;;;;;;;71.50;60.50;17.40;47.70;;;;;;4843767;29;8923;-61
2021/10/21 00:58:53;;;;;;;;;71.25;59.00;17.40;47.80;;;;;;4843613;29;8800;-61
2021/10/21 01:01:20;;;;;;;;;65.00;53.00;17.30;47.80;;;;;;4843694;29;8818;-61
2021/10/21 01:03:46;;;;;;;;;65.25;52.50;17.30;47.80;;;;;;4843525;29;9454;-61
2021/10/21 01:06:13;;;;;;;;;62.00;51.00;17.30;47.90;;;;;;4843456;29;8869;-61
2021/10/21 01:08:40;;;;;;;;;62.00;51.25;17.20;48.00;;;;;;4843642;29;9586;-60
2021/10/21 01:11:06;;;;;;;;;70.00;59.00;17.20;48.10;;;;;;4843741;29;8789;-61
2021/10/21 01:13:33;;;;;;;;;68.00;56.50;17.20;48.10;;;;;;4843631;29;8799;-61
2021/10/21 01:16:03;;;;;;;;;61.00;50.00;17.10;48.20;;;;;;4843426;29;8792;-62
2021/10/21 01:18:29;;;;;;;;;67.25;55.50;17.00;48.30;;;;;;4843448;29;8812;-63
2021/10/21 01:20:55;;;;;;;;;72.25;59.75;17.10;48.30;;;;;;4843403;29;9014;-63
2021/10/21 01:23:21;;;;;;;;;74.00;62.00;17.10;48.30;;;;;;4843343;29;8827;-61
2021/10/21 01:25:47;;;;;;;;;73.75;59.50;17.00;48.00;;;;;;4843340;29;8820;-62
2021/10/21 01:28:13;;;;;;;;;77.50;63.25;17.10;48.00;;;;;;4843234;29;8840;-63
2021/10/21 01:30:39;;;;;;;;;69.50;57.00;17.00;48.00;;;;;;4843527;29;8788;-63
2021/10/21 01:33:05;;;;;;;;;80.00;71.50;17.00;48.20;;;;;;4843614;29;9575;-63
2021/10/21 01:35:31;;;;;;;;;72.50;60.00;16.90;48.20;;;;;;4843556;29;8800;-61
2021/10/21 01:37:56;;;;;;;;;76.25;65.50;16.90;48.20;;;;;;4843212;29;9463;-61
2021/10/21 01:40:23;;;;;;;;;84.50;83.25;16.90;48.10;;;;;;4842296;29;8816;-61
2021/10/21 01:42:49;;;;;;;;;100.50;94.75;16.80;48.00;;;;;;4842154;29;8812;-62
2021/10/21 01:45:23;;;;;;;;;105.75;101.25;16.80;47.90;;;;;;4843138;29;8793;-61
2021/10/21 01:47:50;;;;;;;;;104.25;102.50;16.80;47.90;;;;;;4843074;29;8844;-61
2021/10/21 01:50:18;;;;;;;;;81.75;75.00;16.80;47.90;;;;;;4843073;29;8796;-61
2021/10/21 01:52:44;;;;;;;;;84.25;82.25;16.70;48.20;;;;;;4843116;29;8800;-61
2021/10/21 01:55:11;;;;;;;;;82.75;76.00;16.70;48.10;;;;;;4842926;29;8864;-61
2021/10/21 01:57:38;;;;;;;;;86.25;78.75;16.70;48.10;;;;;;4843746;29;9022;-62
2021/10/21 02:00:06;;;;;;;;;89.75;85.75;16.70;47.90;;;;;;4846485;29;8820;-62
2021/10/21 02:02:31;;;;;;;;;78.50;67.25;16.60;48.10;;;;;;4846702;29;8895;-62
2021/10/21 02:04:58;;;;;;;;;76.25;60.75;16.60;48.00;;;;;;4846411;29;8850;-62
2021/10/21 02:07:23;;;;;;;;;73.75;59.75;16.60;48.20;;;;;;4846531;29;8832;-61
2021/10/21 02:09:49;;;;;;;;;79.00;68.00;16.50;48.20;;;;;;4846384;29;8819;-61
2021/10/21 02:12:15;;;;;;;;;77.75;67.25;16.50;48.10;;;;;;4846485;29;8808;-62
2021/10/21 02:14:41;;;;;;;;;80.50;65.75;16.50;48.20;;;;;;4846441;29;8784;-61
2021/10/21 02:17:07;;;;;;;;;75.00;64.75;16.50;48.30;;;;;;4846173;29;8832;-61
2021/10/21 02:19:36;;;;;;;;;77.00;67.75;16.50;48.50;;;;;;4846100;29;8859;-62
2021/10/21 02:22:03;;;;;;;;;71.50;60.50;16.40;48.70;;;;;;4846151;29;8907;-62
2021/10/21 02:24:29;;;;;;;;;71.75;59.50;16.40;48.70;;;;;;4846346;29;8960;-62
2021/10/21 02:26:55;;;;;;;;;79.00;69.50;16.40;49.70;;;;;;4846230;29;8812;-61
2021/10/21 02:29:21;;;;;;;;;79.25;70.25;16.40;48.40;;;;;;4846259;29;8808;-62
2021/10/21 02:31:47;;;;;;;;;76.25;66.25;16.50;48.20;;;;;;4845938;29;8838;-62
2021/10/21 02:34:13;;;;;;;;;73.75;61.00;16.40;48.40;;;;;;4845928;29;8796;-62
2021/10/21 02:36:38;;;;;;;;;85.75;80.25;16.40;48.30;;;;;;4845877;29;8879;-62
2021/10/21 02:39:05;;;;;;;;;78.50;67.25;16.40;48.20;;;;;;4859405;29;8813;-62
2021/10/21 02:41:31;;;;;;;;;81.25;73.75;16.30;48.50;;;;;;4864223;29;8810;-62
2021/10/21 02:43:57;;;;;;;;;75.50;65.50;16.30;48.60;;;;;;4864202;29;8820;-62
2021/10/21 02:46:23;;;;;;;;;80.25;70.25;16.20;48.80;;;;;;4864094;29;8856;-62
2021/10/21 02:48:49;;;;;;;;;80.25;72.25;16.20;48.70;;;;;;4863063;29;8833;-62
2021/10/21 02:51:15;;;;;;;;;77.25;67.25;16.20;48.60;;;;;;4864000;29;8802;-62
2021/10/21 02:53:41;;;;;;;;;77.75;68.75;16.20;48.70;;;;;;4863721;29;8892;-61
2021/10/21 02:56:07;;;;;;;;;78.00;70.00;16.20;48.70;;;;;;4863990;29;8833;-62
2021/10/21 02:58:32;;;;;;;;;73.75;61.25;16.20;48.60;;;;;;4863942;29;8789;-62
2021/10/21 03:00:58;;;;;;;;;73.75;61.25;16.10;48.70;;;;;;4864129;29;8789;-62
2021/10/21 03:03:24;;;;;;;;;73.00;60.75;16.10;48.70;;;;;;4863840;29;8853;-61
2021/10/21 03:05:50;;;;;;;;;75.00;63.75;16.00;49.10;;;;;;4863871;29;8802;-61
2021/10/21 03:08:16;;;;;;;;;74.25;63.50;16.00;49.10;;;;;;4863632;29;8865;-61
2021/10/21 03:10:41;;;;;;;;;79.50;70.75;16.00;49.50;;;;;;4862809;29;8793;-61
2021/10/21 03:13:08;;;;;;;;;80.00;71.25;16.10;49.20;;;;;;4863632;29;8848;-61
2021/10/21 03:15:34;;;;;;;;;83.50;76.75;16.10;48.70;;;;;;4863634;29;8825;-61
2021/10/21 03:18:00;;;;;;;;;81.00;72.75;16.10;48.80;;;;;;4863852;29;8802;-61
2021/10/21 03:20:26;;;;;;;;;79.75;73.00;15.90;49.10;;;;;;4863541;29;9432;-61
2021/10/21 03:22:52;;;;;;;;;84.25;80.50;15.90;49.10;;;;;;4863724;29;8785;-61
2021/10/21 03:25:18;;;;;;;;;89.50;88.25;15.90;48.90;;;;;;4863766;29;8944;-61
2021/10/21 03:27:44;;;;;;;;;102.75;101.25;16.00;48.70;;;;;;4863295;29;9689;-61
2021/10/21 03:30:11;;;;;;;;;101.25;100.50;16.00;48.50;;;;;;4863329;29;8846;-62
2021/10/21 03:32:38;;;;;;;;;93.75;91.75;16.00;48.80;;;;;;4863573;29;9486;-61
2021/10/21 03:35:05;;;;;;;;;98.75;95.00;15.90;48.90;;;;;;4863558;29;8805;-61
2021/10/21 03:37:31;;;;;;;;;101.00;100.00;15.90;48.90;;;;;;4863452;29;8815;-61
2021/10/21 03:39:57;;;;;;;;;101.00;95.50;15.90;48.90;;;;;;4857193;29;8817;-61
2021/10/21 03:42:23;;;;;;;;;92.50;91.00;15.90;48.90;;;;;;4849120;29;8889;-61
2021/10/21 03:44:50;;;;;;;;;88.25;80.50;15.90;48.90;;;;;;4863341;29;8856;-62
2021/10/21 03:47:16;;;;;;;;;86.25;81.75;15.80;49.40;;;;;;4846754;29;8840;-61
2021/10/21 03:49:42;;;;;;;;;88.25;85.75;15.80;50.30;;;;;;4844511;29;8796;-61
2021/10/21 03:52:08;;;;;;;;;84.00;81.25;15.80;49.20;;;;;;4844526;29;8796;-61
2021/10/21 03:54:34;;;;;;;;;81.25;75.25;15.80;49.30;;;;;;4844168;29;8873;-61
2021/10/21 03:57:00;;;;;;;;;79.75;72.25;15.80;49.50;;;;;;4844425;29;8829;-61
2021/10/21 03:59:27;;;;;;;;;78.00;68.00;15.90;49.20;;;;;;4844650;29;8826;-61
2021/10/21 04:01:54;;;;;;;;;85.00;81.00;15.80;49.10;;;;;;4844337;29;8804;-61
2021/10/21 04:04:20;;;;;;;;;82.00;77.75;15.70;49.30;;;;;;4844377;29;8903;-61
2021/10/21 04:06:46;;;;;;;;;79.00;69.00;15.80;49.20;;;;;;4844242;29;8804;-62
2021/10/21 04:09:12;;;;;;;;;78.00;63.00;15.80;49.20;;;;;;4844192;29;8962;-61
2021/10/21 04:11:38;;;;;;;;;76.50;63.75;15.80;49.10;;;;;;4844249;29;8820;-61
2021/10/21 04:14:04;;;;;;;;;75.00;65.00;15.80;48.80;;;;;;4844366;29;8891;-61
2021/10/21 04:16:30;;;;;;;;;76.50;64.00;15.80;49.00;;;;;;4844203;29;9372;-61
2021/10/21 04:18:56;;;;;;;;;77.00;66.00;15.70;49.10;;;;;;4844347;29;8803;-61
2021/10/21 04:21:22;;;;;;;;;77.75;68.75;15.70;48.70;;;;;;4844084;29;8800;-61
2021/10/21 04:23:48;;;;;;;;;80.25;73.00;15.70;48.60;;;;;;4843963;29;8856;-61
2021/10/21 04:26:16;;;;;;;;;78.25;67.50;15.70;48.40;;;;;;4844180;29;8796;-61
2021/10/21 04:28:42;;;;;;;;;82.25;74.50;15.60;48.30;;;;;;4844045;29;8840;-62
2021/10/21 04:31:09;;;;;;;;;83.25;73.75;15.60;48.30;;;;;;4844114;29;8812;-61
2021/10/21 04:33:34;;;;;;;;;80.00;69.25;15.70;48.40;;;;;;4844313;29;8802;-62
2021/10/21 04:36:00;;;;;;;;;79.50;69.25;15.60;48.30;;;;;;4843771;29;8922;-61
2021/10/21 04:38:26;;;;;;;;;80.00;72.25;15.60;49.40;;;;;;4844689;29;8814;-62
2021/10/21 04:40:52;;;;;;;;;85.75;82.50;15.60;48.10;;;;;;4853771;29;9463;-61
2021/10/21 04:43:18;;;;;;;;;80.00;72.00;15.60;47.80;;;;;;4852618;29;8877;-61
2021/10/21 04:45:44;;;;;;;;;81.50;76.25;15.50;47.90;;;;;;4846966;29;8902;-62
2021/10/21 04:48:09;;;;;;;;;82.25;75.75;15.50;47.90;;;;;;4847952;29;8847;-64
2021/10/21 04:50:35;;;;;;;;;81.00;72.25;15.50;47.90;;;;;;4852125;29;9420;-61
2021/10/21 04:53:01;;;;;;;;;81.25;75.00;15.50;47.80;;;;;;4856919;29;8802;-61
2021/10/21 04:55:28;;;;;;;;;82.75;75.75;15.60;47.90;;;;;;4845652;29;8908;-61
2021/10/21 04:57:54;;;;;;;;;85.50;80.50;15.50;47.60;;;;;;4843540;29;8830;-61
2021/10/21 05:00:20;;;;;;;;;85.00;82.25;15.50;47.70;;;;;;4857273;29;8813;-64
2021/10/21 05:02:46;;;;;;;;;81.25;73.75;15.50;47.50;;;;;;4860449;29;8806;-64
2021/10/21 05:05:13;;;;;;;;;76.00;64.00;15.50;47.20;;;;;;4861988;29;8824;-67
2021/10/21 05:07:39;;;;;;;;;76.75;65.50;15.50;46.80;;;;;;4861847;29;9726;-61
2021/10/21 05:10:05;;;;;;;;;72.25;60.25;15.50;46.90;;;;;;4862079;29;8824;-60
2021/10/21 05:12:31;;;;;;;;;73.00;60.00;15.50;46.90;;;;;;4862030;29;8797;-62
2021/10/21 05:14:57;;;;;;;;;72.00;58.00;15.50;46.90;;;;;;4861686;29;9594;-60
2021/10/21 05:17:23;;;;;;;;;73.25;62.00;15.50;46.90;;;;;;4861739;29;8802;-61
2021/10/21 05:19:50;;;;;;;;;73.25;61.00;15.20;46.60;;;;;;4861842;29;8793;-60
2021/10/21 05:22:16;;;;;;;;;74.25;60.75;15.20;46.80;;;;;;4861811;29;8801;-60
2021/10/21 05:24:42;;;;;;;;;73.25;61.50;15.20;46.80;;;;;;4861643;29;8833;-60
2021/10/21 05:27:11;;;;;;;;;81.75;71.75;15.20;46.80;;;;;;4861554;29;8925;-61
2021/10/21 05:29:36;;;;;;;;;73.50;61.00;15.30;46.40;;;;;;4862014;29;8805;-61
2021/10/21 05:32:07;;;;;;;;;73.25;60.00;15.30;46.90;;;;;;4861942;29;8820;-60
2021/10/21 05:34:34;;;;;;;;;74.25;60.75;15.40;46.60;;;;;;4865294;29;8895;-60
2021/10/21 05:37:01;;;;;;;;;74.50;61.75;15.40;46.70;;;;;;4865503;29;9491;-61
2021/10/21 05:39:28;;;;;;;;;79.75;69.50;15.40;46.50;;;;;;4865257;29;9218;-61
2021/10/21 05:41:54;;;;;;;;;81.75;74.00;15.40;46.70;;;;;;4865230;29;8801;-61
2021/10/21 05:44:20;;;;;;;;;78.00;65.25;15.30;46.60;;;;;;4865227;29;8856;-61
2021/10/21 05:46:49;;;;;;;;;79.25;69.75;15.40;46.90;;;;;;4865340;29;8809;-60
2021/10/21 05:49:14;;;;;;;;;78.25;68.75;15.50;46.90;;;;;;4865225;29;8859;-61
2021/10/21 05:51:40;;;;;;;;;79.50;68.00;15.50;46.50;;;;;;4865026;29;8817;-60
2021/10/21 05:54:06;;;;;;;;;77.00;65.00;15.50;46.70;;;;;;4863067;29;8936;-61
2021/10/21 05:56:32;;;;;;;;;81.00;72.50;15.60;47.10;;;;;;4864937;29;8848;-62
2021/10/21 05:58:57;;;;;;;;;79.00;70.25;15.60;46.90;;;;;;4865202;29;8904;-62
2021/10/21 06:01:23;;;;;;;;;78.00;69.00;15.70;46.30;;;;;;4863845;29;8806;-62
2021/10/21 06:03:49;;;;;;;;;79.50;71.00;15.80;46.30;;;;;;4864775;29;8809;-62
2021/10/21 06:06:15;;;;;;;;;77.50;68.25;15.80;46.50;;;;;;4864311;29;8821;-62
2021/10/21 06:08:41;;;;;;;;;77.75;67.50;15.80;46.40;;;;;;4864636;29;8841;-63
2021/10/21 06:11:08;;;;;;;;;79.25;71.50;15.90;46.50;;;;;;4864977;29;9475;-63
2021/10/21 06:13:34;;;;;;;;;75.75;64.75;16.00;46.20;;;;;;4864727;29;8816;-62
2021/10/21 06:16:01;;;;;;;;;73.50;61.00;16.10;46.20;;;;;;4864585;29;8825;-63
2021/10/21 06:18:28;;;;;;;;;77.50;63.00;16.30;45.80;;;;;;4864838;29;8814;-63
2021/10/21 06:20:54;;;;;;;;;72.25;60.50;16.40;45.50;;;;;;4864670;29;9385;-63
2021/10/21 06:23:20;;;;;;;;;75.75;63.25;16.30;45.10;;;;;;4864626;29;8816;-64
2021/10/21 06:25:46;;;;;;;;;77.50;68.75;16.50;45.00;;;;;;4864558;29;8825;-63
2021/10/21 06:28:12;;;;;;;;;76.25;62.25;16.40;45.10;;;;;;4864365;29;8841;-63
2021/10/21 06:30:38;;;;;;;;;75.50;64.75;16.50;45.50;;;;;;4864434;29;8844;-63
2021/10/21 06:33:04;;;;;;;;;78.00;67.00;16.60;45.50;;;;;;4864646;29;8879;-69
2021/10/21 06:35:30;;;;;;;;;76.00;65.50;16.70;45.00;;;;;;4864644;29;9500;-69
2021/10/21 06:37:56;;;;;;;;;84.00;75.25;16.80;44.70;;;;;;4864476;29;8809;-70
2021/10/21 06:40:22;;;;;;;;;80.50;71.75;16.90;44.70;;;;;;4864525;29;8936;-70
2021/10/21 06:42:48;;;;;;;;;89.50;86.50;17.00;44.70;;;;;;4864182;29;9527;-70
2021/10/21 06:45:15;;;;;;;;;90.75;86.75;17.00;44.70;;;;;;4864016;29;8802;-71
2021/10/21 06:47:42;;;;;;;;;86.00;82.50;17.10;45.00;;;;;;4863983;29;8852;-70
2021/10/21 06:50:09;;;;;;;;;81.00;71.50;17.10;44.90;;;;;;4864033;29;8810;-69
2021/10/21 06:52:39;;;;;;;;;84.00;81.75;17.20;44.80;;;;;;4864125;29;9461;-70
2021/10/21 06:55:06;;;;;;;;;89.50;86.75;17.30;44.80;;;;;;4863713;29;8875;-68
2021/10/21 06:57:32;;;;;;;;;95.50;92.75;17.30;44.70;;;;;;4863975;29;8829;-70
2021/10/21 06:59:58;;;;;;;;;91.25;90.00;17.40;44.70;;;;;;4862916;29;9582;-69
2021/10/21 07:02:24;;;;;;;;;95.50;92.00;17.40;44.70;;;;;;4863824;29;8924;-66
2021/10/21 07:04:49;;;;;;;;;89.50;87.50;17.50;44.90;;;;;;4863908;29;8838;-70
2021/10/21 07:07:15;;;;;;;;;84.75;82.00;17.60;44.80;;;;;;4864033;29;8802;-71
2021/10/21 07:09:41;;;;;;;;;85.50;82.75;17.60;44.90;;;;;;4863804;29;8781;-71
2021/10/21 07:12:07;;;;;;;;;103.25;98.00;17.70;44.80;;;;;;4863720;29;8821;-70
2021/10/21 07:14:32;;;;;;;;;91.00;90.25;17.70;44.60;;;;;;4863766;29;8797;-70
2021/10/21 07:16:58;;;;;;;;;89.00;85.25;17.80;44.20;;;;;;4863491;29;8805;-70
2021/10/21 07:19:24;;;;;;;;;91.50;90.25;17.90;44.00;;;;;;4863458;29;8891;-71
2021/10/21 07:21:50;;;;;;;;;95.75;94.75;18.00;44.10;;;;;;4863355;29;8805;-70
2021/10/21 07:24:16;;;;;;;;;93.00;89.25;18.10;43.70;;;;;;4863579;29;8845;-70
2021/10/21 07:26:42;;;;;;;;;89.00;88.00;18.10;43.60;;;;;;4863320;29;8928;-70
2021/10/21 07:29:08;;;;;;;;;86.75;85.50;18.20;43.60;;;;;;4863173;29;8925;-71
2021/10/21 07:31:34;;;;;;;;;85.25;83.50;18.30;43.60;;;;;;4863001;29;8806;-68
2021/10/21 07:34:00;;;;;;;;;85.75;83.50;18.40;43.50;;;;;;4863549;29;8809;-65
2021/10/21 07:36:26;;;;;;;;;83.50;81.50;18.50;43.40;;;;;;4863060;29;8829;-70
2021/10/21 07:38:51;;;;;;;;;85.75;84.75;18.50;43.30;;;;;;4863112;29;8797;-69
2021/10/21 07:41:18;;;;;;;;;90.50;86.00;18.60;43.40;;;;;;4863112;29;8860;-71
2021/10/21 07:43:45;;;;;;;;;86.25;82.00;18.70;43.70;;;;;;4863152;29;8892;-71
2021/10/21 07:46:10;;;;;;;;;86.75;84.75;18.80;43.70;;;;;;4862960;29;8798;-71
2021/10/21 07:48:37;;;;;;;;;86.00;85.25;18.90;43.50;;;;;;4862781;29;8931;-71
2021/10/21 07:51:02;;;;;;;;;85.50;84.50;18.90;43.70;;;;;;4862952;29;8798;-71
2021/10/21 07:53:32;;;;;;;;;80.50;76.00;19.00;43.70;;;;;;4862601;29;8827;-70
2021/10/21 07:55:58;;;;;;;;;78.00;73.75;19.10;43.50;;;;;;4862404;29;8841;-71
2021/10/21 07:58:24;;;;;;;;;78.50;73.75;19.20;43.60;;;;;;4862738;29;8793;-71
2021/10/21 08:00:50;;;;;;;;;77.25;71.50;19.30;43.20;;;;;;4863124;29;8812;-71
2021/10/21 08:03:18;;;;;;;;;74.00;65.75;19.40;43.10;;;;;;4862978;29;8806;-71
2021/10/21 08:05:44;;;;;;;;;77.25;69.25;19.50;42.70;;;;;;4862656;29;8774;-71
2021/10/21 08:08:10;;;;;;;;;69.25;58.75;19.60;42.90;;;;;;4862464;29;8873;-70
2021/10/21 08:10:36;;;;;;;;;65.25;53.75;19.70;42.50;;;;;;4862628;29;8840;-70
2021/10/21 08:13:02;;;;;;;;;68.75;57.00;19.70;42.70;;;;;;4862546;29;8778;-71
2021/10/21 08:15:28;;;;;;;;;72.75;60.25;19.80;42.40;;;;;;4862532;29;8830;-71
2021/10/21 08:17:55;;;;;;;;;69.50;59.50;19.90;42.30;;;;;;4862533;29;8797;-71
2021/10/21 08:20:24;;;;;;;;;77.00;67.75;19.90;42.00;;;;;;4862701;29;8793;-69
2021/10/21 08:22:50;;;;;;;;;73.25;64.25;19.90;42.40;;;;;;4862601;29;8801;-65
2021/10/21 08:25:17;;;;;;;;;72.00;60.50;19.90;42.50;;;;;;4862684;29;8842;-65
2021/10/21 08:27:43;;;;;;;;;63.25;52.25;20.10;42.20;;;;;;4862313;29;8829;-69
2021/10/21 08:30:12;;;;;;;;;66.25;55.00;20.10;41.80;;;;;;4861182;29;8920;-66
2021/10/21 08:32:38;;;;;;;;;67.25;56.00;20.20;41.60;;;;;;4862464;29;9491;-65
2021/10/21 08:35:06;;;;;;;;;64.00;52.75;20.30;41.70;;;;;;4862270;29;8797;-65
2021/10/21 08:37:33;;;;;;;;;71.00;62.50;20.40;41.50;;;;;;4862133;29;8880;-66
2021/10/21 08:40:01;;;;;;;;;64.00;52.50;20.50;41.40;;;;;;4862015;29;8819;-66
2021/10/21 08:42:28;;;;;;;;;64.75;53.75;20.60;41.20;;;;;;4862061;29;8813;-66
2021/10/21 08:44:56;;;;;;;;;63.50;52.50;20.60;41.20;;;;;;4862120;29;8825;-64
2021/10/21 08:47:23;;;;;;;;;70.25;58.00;20.80;40.40;;;;;;4862249;29;8789;-66
2021/10/21 08:49:52;;;;;;;;;76.00;65.00;20.90;40.20;;;;;;4862079;29;8777;-62
2021/10/21 08:52:18;;;;;;;;;66.00;54.50;21.00;40.30;;;;;;4861940;29;8817;-64
2021/10/21 08:54:44;;;;;;;;;70.00;57.75;21.10;40.20;;;;;;4861737;29;8853;-62
2021/10/21 08:57:14;;;;;;;;;62.50;50.75;21.10;40.00;;;;;;4861913;29;8829;-64
2021/10/21 08:59:46;;;;;;;;;63.00;52.75;21.20;39.40;;;;;;4857267;29;8816;-69
2021/10/21 09:02:22;;;;;;;;;61.25;51.50;21.20;39.10;;;;;;4862217;29;8956;-66
2021/10/21 09:10:14;;;;;;;;;60.00;50.00;21.50;38.70;;;;;;4845889;29;8773;-66
2021/10/21 09:12:45;;;;;;;;;75.75;65.25;21.60;38.60;;;;;;4862058;29;9064;-66
2021/10/21 09:15:20;;;;;;;;;71.00;57.75;21.70;37.90;;;;;;4861895;29;8801;-67
2021/10/21 09:17:47;;;;;;;;;64.75;54.00;21.80;37.60;;;;;;4861888;29;8896;-67
2021/10/21 09:20:30;;;;;;;;;53.50;46.25;22.00;37.50;;;;;;4861825;29;8812;-67
2021/10/21 09:22:59;;;;;;;;;44.00;38.33;22.10;37.00;;;;;;4861777;29;8881;-66
2021/10/21 09:25:28;;;;;;;;;42.00;37.00;22.10;35.40;;;;;;4851021;29;8836;-66
2021/10/21 09:27:58;;;;;;;;;41.67;37.67;22.20;34.90;;;;;;4843418;29;9594;-66
2021/10/21 09:30:27;;;;;;;;;44.00;39.67;22.30;35.30;;;;;;4843197;29;8800;-66
2021/10/21 09:32:54;;;;;;;;;35.33;33.00;22.40;34.80;;;;;;4843129;29;8918;-66
2021/10/21 09:35:22;;;;;;;;;29.00;29.00;22.50;34.40;;;;;;4843228;29;8832;-66
2021/10/21 09:37:49;;;;;;;;;36.00;34.00;22.60;32.80;;;;;;4843308;29;8879;-66
2021/10/21 09:40:21;;;;;;;;;30.33;29.33;22.70;32.90;;;;;;4843138;29;8800;-67
2021/10/21 09:42:58;;;;;;;;;30.67;30.00;22.70;32.60;;;;;;4843187;29;8804;-66
2021/10/21 09:45:43;;;;;;;;;30.67;30.67;22.80;33.00;;;;;;4843258;29;8829;-66
2021/10/21 09:48:09;;;;;;;;;26.33;25.67;23.00;33.10;;;;;;4843011;29;8834;-67
2021/10/21 09:50:40;;;;;;;;;21.33;21.33;23.10;32.40;;;;;;4842884;29;8808;-64
2021/10/21 09:53:22;;;;;;;;;19.33;19.33;23.20;32.20;;;;;;4861239;29;8833;-68
2021/10/21 09:56:09;;;;;;;;;15.00;15.00;23.30;30.10;;;;;;4861381;29;8869;-66
2021/10/21 09:58:39;;;;;;;;;18.00;18.00;23.50;30.10;;;;;;4861415;29;8889;-66
2021/10/21 10:01:07;;;;;;;;;17.67;17.67;23.60;28.90;;;;;;4860567;29;8909;-66
2021/10/21 10:03:35;;;;;;;;;17.33;17.33;23.90;29.00;;;;;;4859183;29;9480;-67
2021/10/21 10:06:01;;;;;;;;;16.00;16.00;24.30;28.40;;;;;;4860405;29;8852;-65
2021/10/21 10:08:31;;;;;;;;;15.33;15.33;24.60;28.80;;;;;;4861180;29;8893;-65
2021/10/21 10:11:03;;;;;;;;;13.00;13.00;25.00;27.80;;;;;;4861496;29;8789;-63
2021/10/21 10:13:29;;;;;;;;;14.00;14.00;25.30;25.50;;;;;;4861434;29;11590;-66
2021/10/21 10:15:58;;;;;;;;;17.00;16.67;25.70;25.80;;;;;;4861166;29;12664;-66
2021/10/21 10:18:27;;;;;;;;;15.67;15.67;26.00;25.70;;;;;;4861370;29;8805;-65
2021/10/21 10:21:15;;;;;;;;;13.00;13.00;26.40;25.20;;;;;;4864692;29;11613;-65
2021/10/21 10:23:51;;;;;;;;;16.00;16.00;27.00;25.30;;;;;;4864594;29;12328;-65
2021/10/21 10:26:42;;;;;;;;;12.25;12.25;27.50;24.10;;;;;;4864551;29;11614;-64
2021/10/21 10:29:20;;;;;;;;;13.25;13.25;27.80;22.90;;;;;;4864236;29;11641;-66
2021/10/21 10:31:48;;;;;;;;;13.00;13.00;28.60;22.40;;;;;;4864184;29;11707;-64
2021/10/21 10:34:32;;;;;;;;;14.33;14.33;29.20;21.70;;;;;;4864209;29;11606;-66
2021/10/21 10:37:13;;;;;;;;;15.67;15.67;29.40;21.50;;;;;;4864134;29;11758;-66
2021/10/21 10:39:50;;;;;;;;;13.25;13.25;29.00;21.70;;;;;;4864322;29;11627;-67
2021/10/21 10:42:37;;;;;;;;;13.50;13.50;28.90;21.50;;;;;;4864220;29;11724;-68
2021/10/21 10:45:10;;;;;;;;;14.50;14.50;28.80;21.70;;;;;;4864010;29;11612;-68
2021/10/21 10:47:51;;;;;;;;;14.25;14.25;28.70;21.90;;;;;;4863982;29;11666;-66
2021/10/21 10:50:23;;;;;;;;;16.00;16.00;28.80;22.30;;;;;;4864202;29;11618;-67
2021/10/21 10:52:59;;;;;;;;;12.33;12.33;28.80;22.00;;;;;;4864216;29;11725;-67
2021/10/21 10:55:34;;;;;;;;;16.67;16.67;29.00;22.60;;;;;;4861911;29;11677;-65
2021/10/21 10:58:01;;;;;;;;;17.67;17.67;29.30;21.50;;;;;;4851753;29;11618;-66
2021/10/21 11:00:49;;;;;;;;;16.25;16.25;29.50;21.70;;;;;;4853287;29;11637;-67
2021/10/21 11:03:29;;;;;;;;;17.33;17.33;29.50;21.90;;;;;;4852013;29;11765;-65
2021/10/21 11:05:57;;;;;;;;;17.33;17.33;29.50;21.70;;;;;;4855250;29;12448;-66
2021/10/21 11:08:48;;;;;;;;;22.00;22.00;29.50;21.90;;;;;;4849449;29;11704;-65
2021/10/21 11:11:51;;;;;;;;;16.67;16.67;29.30;22.10;;;;;;4853041;29;8840;-67
2021/10/21 11:14:39;;;;;;;;;15.75;15.75;29.20;22.10;;;;;;4854014;29;11662;-64
2021/10/21 11:17:05;;;;;;;;;18.67;18.67;28.90;22.30;;;;;;4848743;29;11651;-64
2021/10/21 11:19:51;;;;;;;;;17.00;17.00;28.80;22.60;;;;;;4844878;29;11670;-65
2021/10/21 11:22:20;;;;;;;;;24.67;24.67;28.70;22.60;;;;;;4844934;29;11665;-64
2021/10/21 11:27:13;;;;;;;;;16.00;16.00;28.50;22.90;;;;;;4852142;29;11730;-66
2021/10/21 11:29:39;;;;;;;;;16.00;16.00;28.80;22.50;;;;;;4847644;29;8816;-66
2021/10/21 11:32:06;;;;;;;;;16.00;16.00;29.00;22.40;;;;;;4844339;29;12345;-65
2021/10/21 11:34:32;;;;;;;;;22.67;22.67;28.90;22.40;;;;;;4845029;29;8788;-66
2021/10/21 11:36:58;;;;;;;;;21.67;21.67;29.00;22.40;;;;;;4856212;29;11841;-65
2021/10/21 11:39:35;;;;;;;;;17.33;17.33;29.60;22.50;;;;;;4861998;29;11699;-65
2021/10/21 11:42:09;;;;;;;;;19.67;19.67;30.40;22.40;;;;;;4861694;29;11645;-65
2021/10/21 11:44:36;;;;;;;;;16.00;16.00;30.20;21.80;;;;;;4861665;29;11613;-66
2021/10/21 11:47:06;;;;;;;;;19.33;19.33;30.10;21.70;;;;;;4861753;29;11624;-65
2021/10/21 11:49:37;;;;;;;;;19.00;19.00;30.00;21.80;;;;;;4860470;29;11779;-65
2021/10/21 11:52:09;;;;;;;;;18.67;18.67;29.80;22.40;;;;;;4861390;29;12300;-65
2021/10/21 11:54:36;;;;;;;;;17.00;17.00;29.50;22.10;;;;;;4860672;29;11705;-65
2021/10/21 11:57:02;;;;;;;;;20.33;20.33;29.50;22.20;;;;;;4858236;29;12783;-65
2021/10/21 11:59:36;;;;;;;;;17.00;17.00;29.60;22.00;;;;;;4861605;29;12322;-65
2021/10/21 12:02:11;;;;;;;;;19.00;19.00;29.50;22.00;;;;;;4861255;29;11629;-66
2021/10/21 12:04:38;;;;;;;;;23.33;23.33;29.50;22.10;;;;;;4859182;29;11638;-66
2021/10/21 12:07:05;;;;;;;;;17.67;17.67;29.50;22.30;;;;;;4861260;29;8798;-67
2021/10/21 12:09:35;;;;;;;;;18.33;18.33;28.90;22.70;;;;;;4857646;29;11696;-64
2021/10/21 12:12:08;;;;;;;;;19.00;19.00;29.50;22.90;;;;;;4858938;29;12284;-64
2021/10/21 12:14:40;;;;;;;;;22.00;22.00;29.80;22.10;;;;;;4861195;29;8806;-64
2021/10/21 12:17:07;;;;;;;;;25.67;25.67;29.80;22.00;;;;;;4861255;29;8809;-65
2021/10/21 12:19:33;;;;;;;;;24.00;24.00;30.20;22.10;;;;;;4861479;29;8985;-64
2021/10/21 12:22:04;;;;;;;;;23.00;23.00;31.00;22.10;;;;;;4858996;29;8936;-65
2021/10/21 12:24:31;;;;;;;;;22.33;21.33;31.80;21.20;;;;;;4859078;29;8940;-65
2021/10/21 12:27:02;;;;;;;;;10.00;10.00;32.00;21.00;;;;;;4859286;29;12323;-64
2021/10/21 12:29:41;;;;;;;;;16.67;16.67;32.20;20.90;;;;;;4858939;29;9543;-63
2021/10/21 12:32:09;;;;;;;;;21.67;21.00;32.10;20.50;;;;;;4860929;29;11634;-63
2021/10/21 12:34:35;;;;;;;;;25.67;25.67;32.00;21.00;;;;;;4859061;29;12305;-62
2021/10/21 12:37:07;;;;;;;;;28.67;28.67;31.80;20.60;;;;;;4860885;29;8822;-62
2021/10/21 12:39:34;;;;;;;;;20.00;20.00;31.60;21.40;;;;;;4858981;29;11639;-62
2021/10/21 12:42:02;;;;;;;;;22.33;22.33;31.30;20.80;;;;;;4860877;29;11746;-62
2021/10/21 12:44:39;;;;;;;;;25.00;23.67;31.20;21.30;;;;;;4856371;29;11663;-62
2021/10/21 12:47:27;;;;;;;;;27.00;27.00;31.40;21.40;;;;;;4861441;29;11635;-64